Time;durP1;ratioP1;P1;durP2;ratioP2;P2;SDS_P1;SDS_P2;PMS_P1;PMS_P2;Temp;Humidity;BMP_temperature;BMP_pressure;BME280_temperature;BME280_humidity;BME280_pressure;Samples;Min_cycle;Max_cycle;Signal;HPM_P1;HPM_P2
2021/12/25 00:01:33;;;;;;;0.60;0.60;;;9.30;99.90;;;;;;5052614;28;20237;-90
2021/12/25 00:04:02;;;;;;;0.40;0.40;;;9.20;99.90;;;;;;5053034;28;20216;-83
2021/12/25 00:06:30;;;;;;;0.38;0.38;;;9.10;99.90;;;;;;5051574;28;20264;-83
2021/12/25 00:08:59;;;;;;;0.32;0.32;;;9.10;99.90;;;;;;5051088;28;20297;-83
2021/12/25 00:11:27;;;;;;;0.50;0.50;;;9.00;99.90;;;;;;5051883;28;20265;-83
2021/12/25 00:13:55;;;;;;;0.40;0.40;;;8.90;99.90;;;;;;5051628;28;20229;-83
2021/12/25 00:16:25;;;;;;;0.40;0.40;;;8.90;99.90;;;;;;5051467;28;20225;-83
2021/12/25 00:18:54;;;;;;;1.23;0.80;;;8.80;99.90;;;;;;5050916;28;20202;-90
2021/12/25 00:21:25;;;;;;;0.50;0.50;;;8.80;99.90;;;;;;5051323;28;20209;-90
2021/12/25 00:23:53;;;;;;;0.40;0.40;;;8.80;99.90;;;;;;5051174;28;20313;-89
2021/12/25 00:26:38;;;;;;;0.30;0.30;;;8.80;99.90;;;;;;5051154;28;20309;-82
2021/12/25 00:29:30;;;;;;;0.43;0.43;;;8.80;99.90;;;;;;5050712;28;20240;-82
2021/12/25 00:32:11;;;;;;;0.57;0.57;;;8.70;99.90;;;;;;5051535;28;20293;-82
2021/12/25 00:34:40;;;;;;;0.43;0.43;;;8.70;99.90;;;;;;5053906;28;20249;-82
2021/12/25 00:37:09;;;;;;;0.55;0.55;;;8.70;99.90;;;;;;5054980;28;20210;-82
2021/12/25 00:39:38;;;;;;;0.70;0.65;;;8.60;99.90;;;;;;5054371;28;20229;-82
2021/12/25 00:42:08;;;;;;;0.82;0.82;;;8.60;99.90;;;;;;5054957;28;20263;-81
2021/12/25 00:44:36;;;;;;;0.73;0.73;;;8.50;99.90;;;;;;5054503;28;20253;-82
2021/12/25 00:47:07;;;;;;;1.05;1.05;;;8.40;99.90;;;;;;5054810;28;20229;-81
2021/12/25 00:49:35;;;;;;;0.55;0.55;;;8.30;99.90;;;;;;5054384;28;20210;-81
2021/12/25 00:52:04;;;;;;;1.23;1.13;;;8.30;99.90;;;;;;5054831;28;20285;-82
2021/12/25 00:54:33;;;;;;;2.13;1.00;;;8.20;99.90;;;;;;5054552;28;20305;-81
2021/12/25 00:57:02;;;;;;;0.68;0.68;;;8.20;99.90;;;;;;5054488;28;20297;-81
2021/12/25 00:59:32;;;;;;;0.90;0.90;;;8.20;99.90;;;;;;5053860;28;20244;-81
2021/12/25 01:02:01;;;;;;;0.60;0.60;;;8.20;99.90;;;;;;5054255;28;20229;-81
2021/12/25 01:04:31;;;;;;;0.98;0.98;;;8.10;99.90;;;;;;5054559;28;20198;-81
2021/12/25 01:06:59;;;;;;;0.75;0.75;;;8.10;99.90;;;;;;5054125;28;20237;-81
2021/12/25 01:09:28;;;;;;;0.57;0.57;;;8.20;99.90;;;;;;5053726;28;20206;-81
2021/12/25 01:11:57;;;;;;;0.57;0.57;;;8.20;99.90;;;;;;5054051;28;20210;-81
2021/12/25 01:14:33;;;;;;;0.80;0.70;;;8.20;99.90;;;;;;5054014;28;20202;-81
2021/12/25 01:17:22;;;;;;;0.68;0.68;;;8.20;99.90;;;;;;5054362;28;20205;-81
2021/12/25 01:23:12;;;;;;;0.80;0.80;;;8.30;99.90;;;;;;5046607;28;20279;-81
2021/12/25 01:29:14;;;;;;;1.08;1.02;;;8.20;99.90;;;;;;5043227;28;20304;-81
2021/12/25 01:31:48;;;;;;;0.70;0.70;;;8.20;99.90;;;;;;5054042;28;20210;-81
2021/12/25 01:35:03;;;;;;;0.60;0.60;;;8.20;99.90;;;;;;5053984;28;20221;-81
2021/12/25 01:37:37;;;;;;;0.95;0.90;;;8.20;99.90;;;;;;5053828;28;20209;-81
2021/12/25 01:40:30;;;;;;;2.17;0.85;;;8.20;99.90;;;;;;5053539;28;20201;-81
2021/12/25 01:48:34;;;;;;;0.80;0.80;;;8.10;99.90;;;;;;5053670;28;20255;-81
2021/12/25 01:51:03;;;;;;;1.08;1.08;;;8.00;99.90;;;;;;5053516;28;20206;-81
2021/12/25 01:53:33;;;;;;;0.70;0.70;;;8.00;99.90;;;;;;5053544;28;20301;-81
2021/12/25 01:56:02;;;;;;;0.93;0.90;;;7.90;99.90;;;;;;5053766;28;20305;-81
2021/12/25 01:58:32;;;;;;;1.40;1.20;;;7.90;99.90;;;;;;5053648;28;20245;-81
2021/12/25 02:01:01;;;;;;;0.90;0.90;;;7.90;99.90;;;;;;5053252;28;20209;-81
2021/12/25 02:03:32;;;;;;;0.98;0.90;;;7.90;99.90;;;;;;5053496;28;20221;-81
2021/12/25 02:06:00;;;;;;;0.60;0.60;;;7.90;99.90;;;;;;5053982;28;20234;-83
2021/12/25 02:08:29;;;;;;;0.90;0.90;;;7.90;99.90;;;;;;5053738;28;20269;-84
2021/12/25 02:10:59;;;;;;;1.00;1.00;;;7.90;99.90;;;;;;5053195;28;20241;-83
2021/12/25 02:13:28;;;;;;;1.08;1.08;;;7.90;99.90;;;;;;5053282;28;20224;-83
2021/12/25 02:15:58;;;;;;;1.20;1.10;;;7.90;99.90;;;;;;5053468;28;20308;-83
2021/12/25 02:18:32;;;;;;;1.13;1.05;;;7.90;99.90;;;;;;5053253;28;20226;-83
2021/12/25 02:21:09;;;;;;;1.08;1.05;;;7.90;99.90;;;;;;5052978;28;20205;-83
2021/12/25 02:23:38;;;;;;;1.27;1.17;;;7.90;99.90;;;;;;5052965;28;20260;-83
2021/12/25 02:26:07;;;;;;;0.93;0.93;;;7.90;99.90;;;;;;5052974;28;20222;-83
2021/12/25 02:28:36;;;;;;;1.00;1.00;;;7.90;99.90;;;;;;5053461;28;20304;-83
2021/12/25 02:31:08;;;;;;;1.50;1.40;;;7.90;99.90;;;;;;5052891;28;20320;-83
2021/12/25 02:33:36;;;;;;;0.95;0.95;;;7.90;99.90;;;;;;5053169;28;20197;-83
2021/12/25 02:36:08;;;;;;;0.80;0.80;;;7.90;99.90;;;;;;5052903;28;20252;-83
2021/12/25 02:38:37;;;;;;;0.95;0.95;;;7.90;99.90;;;;;;5052895;28;20234;-83
2021/12/25 02:41:06;;;;;;;1.00;1.00;;;7.90;99.90;;;;;;5052392;28;20228;-83
2021/12/25 02:43:35;;;;;;;1.02;1.02;;;7.80;99.90;;;;;;5052768;28;20225;-83
2021/12/25 02:46:05;;;;;;;0.90;0.90;;;7.80;99.90;;;;;;5053214;28;20296;-83
2021/12/25 02:48:36;;;;;;;0.93;0.93;;;7.90;99.90;;;;;;5053103;28;20202;-83
2021/12/25 02:51:07;;;;;;;1.45;1.35;;;7.90;99.90;;;;;;5052475;28;20206;-83
2021/12/25 02:53:36;;;;;;;1.10;1.10;;;7.90;99.90;;;;;;5052689;28;20217;-83
2021/12/25 02:56:05;;;;;;;1.05;1.05;;;7.90;99.90;;;;;;5052936;28;20241;-83
2021/12/25 02:58:33;;;;;;;1.02;1.00;;;7.90;99.90;;;;;;5051924;28;20251;-83
2021/12/25 03:01:06;;;;;;;1.38;1.27;;;7.90;99.90;;;;;;5052396;28;20234;-83
2021/12/25 03:03:35;;;;;;;1.20;1.20;;;7.90;99.90;;;;;;5052401;28;20218;-83
2021/12/25 03:06:06;;;;;;;0.95;0.95;;;7.90;99.90;;;;;;5052243;28;20304;-83
2021/12/25 03:08:35;;;;;;;0.75;0.75;;;7.90;99.90;;;;;;5052300;28;20232;-83
2021/12/25 03:11:06;;;;;;;1.40;1.30;;;7.80;99.90;;;;;;5052137;28;20296;-90
2021/12/25 03:13:43;;;;;;;1.10;1.10;;;7.80;99.90;;;;;;5052598;28;20282;-89
2021/12/25 03:16:12;;;;;;;1.38;1.33;;;7.80;99.90;;;;;;5052468;28;20233;-83
2021/12/25 03:18:46;;;;;;;1.10;1.10;;;7.80;99.90;;;;;;5051878;28;20213;-83
2021/12/25 03:21:19;;;;;;;1.05;0.95;;;7.80;99.90;;;;;;5052798;28;20214;-81
2021/12/25 03:23:49;;;;;;;1.00;1.00;;;7.80;99.90;;;;;;5052116;28;20235;-81
2021/12/25 03:26:17;;;;;;;1.08;0.98;;;7.80;99.90;;;;;;5052136;28;20217;-81
2021/12/25 03:28:50;;;;;;;1.38;1.27;;;7.80;99.90;;;;;;5051902;28;20205;-81
2021/12/25 03:31:20;;;;;;;1.65;1.42;;;7.80;99.90;;;;;;5052244;28;20285;-81
2021/12/25 03:33:53;;;;;;;1.00;1.00;;;7.80;99.90;;;;;;5052476;28;20205;-81
2021/12/25 03:36:24;;;;;;;0.90;0.90;;;7.80;99.90;;;;;;5052153;28;20316;-82
2021/12/25 03:38:53;;;;;;;0.90;0.90;;;7.80;99.90;;;;;;5051851;28;20311;-82
2021/12/25 03:41:21;;;;;;;1.30;1.20;;;7.80;99.90;;;;;;5052453;28;20225;-81
2021/12/25 03:43:50;;;;;;;1.10;1.10;;;7.80;99.90;;;;;;5052081;28;20214;-81
2021/12/25 03:46:19;;;;;;;1.50;1.40;;;7.80;99.90;;;;;;5051889;28;20284;-81
2021/12/25 03:49:14;;;;;;;0.80;0.80;;;7.80;99.90;;;;;;5051438;28;20228;-81
2021/12/25 04:00:05;;;;;;;0.90;0.90;;;7.80;99.90;;;;;;5051567;28;20205;-81
2021/12/25 04:02:37;;;;;;;1.30;1.20;;;7.80;99.90;;;;;;5052209;28;20234;-81
2021/12/25 04:05:14;;;;;;;0.90;0.90;;;7.90;99.90;;;;;;5051737;28;20301;-81
2021/12/25 04:10:27;;;;;;;0.93;0.80;;;7.80;99.90;;;;;;5052699;28;20273;-81
2021/12/25 04:12:56;;;;;;;1.25;1.15;;;7.90;99.90;;;;;;5055852;28;20202;-81
2021/12/25 04:15:24;;;;;;;1.17;1.17;;;7.90;99.90;;;;;;5055652;28;20268;-81
2021/12/25 04:17:53;;;;;;;0.70;0.70;;;7.90;99.90;;;;;;5055881;28;20297;-81
2021/12/25 04:20:22;;;;;;;1.17;1.15;;;7.90;99.90;;;;;;5055224;28;20206;-81
2021/12/25 04:22:57;;;;;;;12.60;1.20;;;7.90;99.90;;;;;;5055536;28;20244;-81
2021/12/25 04:25:28;;;;;;;0.60;0.60;;;7.90;99.90;;;;;;5055044;28;20249;-81
2021/12/25 04:28:02;;;;;;;0.95;0.95;;;7.90;99.90;;;;;;5055736;28;20225;-81
2021/12/25 04:30:40;;;;;;;1.10;1.10;;;7.90;99.90;;;;;;5055140;28;20251;-81
2021/12/25 05:03:42;;;;;;;0.90;0.90;;;8.10;99.90;;;;;;5054935;28;20232;-81
2021/12/25 05:06:11;;;;;;;1.27;1.23;;;8.10;99.90;;;;;;5054118;28;20313;-82
2021/12/25 05:08:40;;;;;;;0.95;0.95;;;8.10;99.90;;;;;;5054276;28;20210;-88
2021/12/25 05:11:10;;;;;;;0.95;0.95;;;8.10;99.90;;;;;;5054394;28;20214;-88
2021/12/25 05:13:38;;;;;;;1.70;1.50;;;8.10;99.90;;;;;;5054513;28;20202;-82
2021/12/25 05:16:07;;;;;;;1.05;0.98;;;8.10;99.90;;;;;;5054457;28;20248;-82
2021/12/25 05:18:35;;;;;;;1.13;1.02;;;8.00;99.90;;;;;;5054369;28;20210;-81
2021/12/25 05:21:04;;;;;;;1.30;1.20;;;8.00;99.90;;;;;;5052952;28;20233;-89
2021/12/25 05:23:32;;;;;;;1.30;1.25;;;8.00;99.90;;;;;;5054575;28;20225;-88
2021/12/25 05:26:00;;;;;;;0.90;0.90;;;8.00;99.90;;;;;;5054225;28;20308;-88
2021/12/25 05:28:39;;;;;;;0.90;0.90;;;8.10;99.90;;;;;;5054219;28;20209;-88
2021/12/25 05:31:08;;;;;;;0.90;0.90;;;8.00;99.90;;;;;;5054060;28;20235;-88
2021/12/25 05:33:37;;;;;;;1.55;1.45;;;8.10;99.90;;;;;;5054619;28;20220;-88
2021/12/25 05:36:06;;;;;;;1.90;1.77;;;8.10;99.90;;;;;;5054415;28;20222;-88
2021/12/25 05:38:36;;;;;;;1.75;1.52;;;8.10;99.90;;;;;;5054580;28;20205;-88
2021/12/25 05:41:05;;;;;;;1.15;1.13;;;8.10;99.90;;;;;;5053660;28;20233;-89
2021/12/25 05:43:35;;;;;;;1.70;1.60;;;8.10;99.90;;;;;;5054060;28;20229;-88
2021/12/25 05:46:03;;;;;;;1.85;1.60;;;8.10;99.90;;;;;;5053797;28;20260;-88
2021/12/25 05:48:35;;;;;;;1.42;1.35;;;8.10;99.90;;;;;;5054067;28;20206;-81
2021/12/25 05:51:04;;;;;;;2.03;1.92;;;8.10;99.90;;;;;;5053852;28;20209;-88
2021/12/25 05:53:33;;;;;;;2.08;1.90;;;8.10;99.90;;;;;;5053501;28;20248;-89
2021/12/25 05:56:02;;;;;;;1.65;1.55;;;8.10;99.90;;;;;;5054032;28;20238;-89
2021/12/25 05:58:30;;;;;;;1.88;1.77;;;8.00;99.90;;;;;;5054101;28;20225;-88
2021/12/25 06:01:00;;;;;;;2.30;2.10;;;8.00;99.90;;;;;;5053081;28;20228;-88
2021/12/25 06:03:29;;;;;;;3.38;1.83;;;8.00;99.90;;;;;;5053546;28;20208;-81
2021/12/25 06:05:58;;;;;;;1.45;1.42;;;8.00;99.90;;;;;;5053341;28;20225;-81
2021/12/25 06:08:26;;;;;;;1.80;1.70;;;8.00;99.90;;;;;;5053295;28;20259;-81
2021/12/25 06:10:55;;;;;;;2.20;2.00;;;8.00;99.90;;;;;;5053146;28;20305;-81
2021/12/25 06:13:24;;;;;;;2.17;1.98;;;8.00;99.90;;;;;;5053549;28;20240;-81
2021/12/25 06:15:53;;;;;;;2.33;2.13;;;8.00;99.90;;;;;;5053389;28;20217;-81
2021/12/25 06:18:23;;;;;;;2.20;2.05;;;8.00;99.90;;;;;;5053206;28;20236;-81
2021/12/25 06:20:51;;;;;;;1.92;1.83;;;8.00;99.90;;;;;;5052581;28;20234;-81
2021/12/25 06:23:20;;;;;;;3.38;3.17;;;8.10;99.90;;;;;;5053415;28;20230;-81
2021/12/25 06:25:48;;;;;;;4.90;3.58;;;8.10;99.90;;;;;;5053112;28;20233;-81
2021/12/25 06:28:17;;;;;;;3.13;2.92;;;8.00;99.90;;;;;;5053184;28;20228;-81
2021/12/25 06:30:45;;;;;;;4.20;3.80;;;8.00;99.90;;;;;;5052892;28;20205;-81
2021/12/25 06:33:14;;;;;;;5.05;3.97;;;8.00;99.90;;;;;;5052370;28;20210;-81
2021/12/25 06:35:43;;;;;;;4.68;4.28;;;8.00;99.90;;;;;;5053490;28;20229;-81
2021/12/25 06:38:12;;;;;;;5.40;4.70;;;8.10;99.90;;;;;;5053738;28;20208;-81
2021/12/25 06:40:41;;;;;;;5.43;5.00;;;8.00;99.90;;;;;;5052522;28;20202;-81
2021/12/25 06:43:09;;;;;;;5.20;4.80;;;7.90;99.90;;;;;;5052556;28;20298;-81
2021/12/25 06:45:38;;;;;;;5.70;5.20;;;7.80;99.90;;;;;;5052432;28;20280;-81
2021/12/25 06:48:06;;;;;;;7.75;5.95;;;7.70;99.90;;;;;;5052753;28;20237;-81
2021/12/25 06:50:35;;;;;;;4.90;4.55;;;7.60;99.90;;;;;;5052320;28;20202;-81
2021/12/25 06:53:05;;;;;;;13.75;5.40;;;7.50;99.90;;;;;;5052766;28;20231;-81
2021/12/25 06:55:36;;;;;;;5.57;4.97;;;7.50;99.90;;;;;;5052716;28;20283;-82
2021/12/25 06:58:04;;;;;;;4.55;4.25;;;7.40;99.90;;;;;;5052563;28;20205;-81
2021/12/25 07:00:33;;;;;;;4.70;4.32;;;7.40;99.90;;;;;;5052065;28;20301;-81
2021/12/25 07:03:02;;;;;;;6.40;5.28;;;7.30;99.90;;;;;;5052700;28;20202;-81
2021/12/25 07:05:30;;;;;;;6.00;5.45;;;7.20;99.90;;;;;;5052610;28;20221;-81
2021/12/25 07:07:59;;;;;;;4.88;4.47;;;7.10;99.90;;;;;;5052469;28;20198;-82
2021/12/25 07:10:29;;;;;;;4.65;4.20;;;7.00;99.90;;;;;;5052278;28;20209;-81
2021/12/25 07:12:57;;;;;;;4.45;4.03;;;7.00;99.90;;;;;;5052260;28;20213;-81
2021/12/25 07:15:25;;;;;;;4.78;4.38;;;6.90;99.90;;;;;;5052161;28;20233;-81
2021/12/25 07:17:54;;;;;;;5.07;4.57;;;6.90;99.90;;;;;;5052262;28;20234;-81
2021/12/25 07:20:22;;;;;;;4.95;4.55;;;6.80;99.90;;;;;;5051955;28;20210;-81
2021/12/25 07:22:53;;;;;;;4.78;4.35;;;6.80;99.90;;;;;;5052468;28;20210;-81
2021/12/25 07:25:22;;;;;;;4.32;3.92;;;6.70;99.90;;;;;;5052336;28;20244;-88
2021/12/25 07:27:52;;;;;;;8.07;3.90;;;6.70;99.90;;;;;;5052180;28;20205;-88
2021/12/25 07:30:21;;;;;;;4.15;3.85;;;6.60;99.90;;;;;;5051611;28;20271;-82
2021/12/25 07:32:49;;;;;;;5.00;4.50;;;6.60;99.90;;;;;;5052504;28;20202;-81
2021/12/25 07:35:17;;;;;;;4.63;4.22;;;6.60;99.90;;;;;;5052553;28;20222;-81
2021/12/25 07:37:46;;;;;;;5.07;4.68;;;6.50;99.90;;;;;;5051838;28;20237;-81
2021/12/25 07:40:18;;;;;;;5.45;4.70;;;6.50;99.90;;;;;;5051705;28;20205;-81
2021/12/25 07:42:46;;;;;;;5.32;4.82;;;6.50;99.90;;;;;;5052067;28;20266;-81
2021/12/25 07:45:17;;;;;;;5.47;4.97;;;6.50;99.90;;;;;;5055352;28;20234;-81
2021/12/25 07:47:51;;;;;;;3.88;3.58;;;6.40;99.90;;;;;;5056084;28;20236;-81
2021/12/25 07:50:19;;;;;;;5.78;5.28;;;6.30;99.90;;;;;;5055898;28;20205;-81
2021/12/25 07:52:47;;;;;;;5.68;5.15;;;6.20;99.90;;;;;;5056183;28;20228;-81
2021/12/25 07:55:19;;;;;;;6.18;5.55;;;6.20;99.90;;;;;;5055861;28;20229;-81
2021/12/25 07:57:47;;;;;;;5.53;5.03;;;6.20;99.90;;;;;;5056074;28;20212;-81
2021/12/25 08:00:21;;;;;;;4.70;4.30;;;6.10;99.90;;;;;;5055233;28;20228;-88
2021/12/25 08:02:51;;;;;;;5.40;4.70;;;6.10;99.90;;;;;;5057162;28;20209;-88
2021/12/25 08:05:21;;;;;;;4.78;4.38;;;6.10;99.90;;;;;;5057424;28;20255;-88
2021/12/25 08:07:50;;;;;;;6.68;4.80;;;6.10;99.90;;;;;;5057757;28;20214;-88
2021/12/25 08:10:20;;;;;;;5.20;4.70;;;6.00;99.90;;;;;;5056337;28;20197;-88
2021/12/25 08:12:51;;;;;;;7.28;5.68;;;5.90;99.90;;;;;;5056430;28;20205;-88
2021/12/25 08:15:23;;;;;;;6.20;5.63;;;5.90;99.90;;;;;;5055369;28;20283;-81
2021/12/25 08:17:53;;;;;;;6.20;5.30;;;5.90;99.90;;;;;;5055636;28;20229;-81
2021/12/25 08:20:23;;;;;;;5.10;4.70;;;5.90;99.90;;;;;;5057478;28;20232;-88
2021/12/25 08:22:52;;;;;;;6.70;6.10;;;5.90;99.90;;;;;;5056040;28;20205;-88
2021/12/25 08:25:20;;;;;;;6.85;6.10;;;5.80;99.90;;;;;;5055519;28;20249;-88
2021/12/25 08:27:49;;;;;;;6.18;5.68;;;5.70;99.90;;;;;;5055663;28;20225;-88
2021/12/25 08:30:19;;;;;;;5.90;5.30;;;5.60;99.90;;;;;;5055220;28;20249;-88
2021/12/25 08:32:55;;;;;;;6.00;5.50;;;5.70;99.90;;;;;;5058073;28;20210;-83
2021/12/25 08:35:26;;;;;;;5.57;5.10;;;5.60;99.90;;;;;;5055327;28;20225;-83
2021/12/25 08:37:55;;;;;;;5.68;5.25;;;5.60;99.90;;;;;;5054973;28;20236;-83
2021/12/25 08:40:25;;;;;;;5.57;5.18;;;5.60;99.90;;;;;;5054488;28;20209;-83
2021/12/25 08:42:58;;;;;;;6.55;5.90;;;5.50;99.90;;;;;;5055093;28;20205;-83
2021/12/25 08:45:41;;;;;;;5.72;5.22;;;5.50;99.90;;;;;;5054858;28;20261;-83
2021/12/25 08:48:18;;;;;;;5.63;5.13;;;5.50;99.90;;;;;;5054805;28;20256;-83
2021/12/25 08:50:49;;;;;;;7.90;6.05;;;5.50;99.90;;;;;;5054518;28;20205;-83
2021/12/25 08:53:19;;;;;;;6.93;6.32;;;5.50;99.90;;;;;;5054825;28;20245;-83
2021/12/25 08:55:48;;;;;;;6.78;6.18;;;5.40;99.90;;;;;;5055085;28;20312;-83
2021/12/25 08:58:17;;;;;;;6.95;6.25;;;5.50;99.90;;;;;;5054925;28;20201;-81
2021/12/25 09:00:47;;;;;;;6.70;6.10;;;5.40;99.90;;;;;;5054243;28;20206;-80
2021/12/25 09:03:17;;;;;;;5.93;5.35;;;5.50;99.90;;;;;;5054823;28;20206;-80
2021/12/25 09:05:45;;;;;;;6.50;5.75;;;5.40;99.90;;;;;;5054668;28;20283;-80
2021/12/25 09:08:14;;;;;;;6.53;5.93;;;5.40;99.90;;;;;;5054296;28;20218;-81
2021/12/25 09:10:43;;;;;;;6.25;5.65;;;5.30;99.90;;;;;;5054323;28;20233;-80
2021/12/25 09:13:11;;;;;;;7.15;6.43;;;5.30;99.90;;;;;;5054660;28;20233;-80
2021/12/25 09:15:40;;;;;;;6.68;5.97;;;5.30;99.90;;;;;;5054445;28;20230;-81
2021/12/25 09:18:09;;;;;;;7.47;6.70;;;5.30;99.90;;;;;;5054580;28;20256;-81
2021/12/25 09:20:38;;;;;;;7.28;6.60;;;5.30;99.90;;;;;;5053945;28;20229;-80
2021/12/25 09:23:07;;;;;;;8.02;7.22;;;5.30;99.90;;;;;;5054898;28;20225;-80
2021/12/25 09:25:36;;;;;;;7.88;7.18;;;5.30;99.90;;;;;;5054086;28;20222;-80
2021/12/25 09:28:04;;;;;;;8.18;7.47;;;5.30;99.90;;;;;;5054189;28;20289;-80
2021/12/25 09:30:33;;;;;;;7.10;6.40;;;5.20;99.90;;;;;;5053836;28;20266;-80
2021/12/25 09:33:02;;;;;;;6.97;6.38;;;5.20;99.90;;;;;;5054009;28;20233;-80
2021/12/25 09:35:30;;;;;;;7.13;6.45;;;5.20;99.90;;;;;;5054415;28;20313;-81
2021/12/25 09:38:00;;;;;;;7.55;6.88;;;5.10;99.90;;;;;;5053882;28;20388;-81
2021/12/25 09:40:29;;;;;;;8.23;7.43;;;5.00;99.90;;;;;;5053708;28;20327;-87
2021/12/25 09:42:57;;;;;;;7.60;6.82;;;5.00;99.90;;;;;;5053940;28;20303;-87
2021/12/25 09:45:26;;;;;;;8.15;7.43;;;5.00;99.90;;;;;;5053382;28;20265;-87
2021/12/25 09:47:54;;;;;;;7.10;6.18;;;5.00;99.90;;;;;;5054012;28;20236;-87
2021/12/25 09:50:23;;;;;;;6.05;5.45;;;5.00;99.90;;;;;;5053444;28;20266;-87
2021/12/25 09:52:52;;;;;;;5.70;5.22;;;5.00;99.90;;;;;;5054079;28;20208;-87
2021/12/25 09:55:22;;;;;;;6.70;5.30;;;4.90;99.90;;;;;;5053657;28;20304;-87
2021/12/25 09:57:50;;;;;;;5.15;4.65;;;4.80;99.90;;;;;;5053813;28;20257;-87
2021/12/25 10:00:22;;;;;;;4.43;4.13;;;4.70;99.90;;;;;;5053281;28;20237;-86
2021/12/25 10:03:00;;;;;;;4.05;3.75;;;4.60;99.90;;;;;;5056196;28;20205;-87
2021/12/25 10:05:32;;;;;;;5.88;5.22;;;4.60;99.90;;;;;;5057723;28;20230;-86
2021/12/25 10:08:11;;;;;;;5.18;4.50;;;4.60;99.90;;;;;;5053607;28;20218;-86
2021/12/25 10:10:44;;;;;;;5.15;4.68;;;4.50;99.90;;;;;;5053035;28;20213;-86
2021/12/25 10:13:21;;;;;;;5.28;4.78;;;4.50;99.90;;;;;;5053731;28;20205;-87
2021/12/25 10:15:50;;;;;;;5.40;4.90;;;4.50;99.90;;;;;;5053527;28;20236;-86
2021/12/25 10:18:27;;;;;;;6.40;5.40;;;4.50;99.90;;;;;;5053369;28;20198;-86
2021/12/25 10:20:55;;;;;;;5.25;4.78;;;4.40;99.90;;;;;;5052730;28;20209;-86
2021/12/25 10:23:29;;;;;;;5.07;4.63;;;4.40;99.90;;;;;;5053094;28;20252;-87
2021/12/25 10:26:01;;;;;;;5.63;4.53;;;4.50;99.90;;;;;;5053449;28;20291;-87
2021/12/25 10:28:32;;;;;;;4.70;4.30;;;4.50;99.90;;;;;;5052988;28;20260;-87
2021/12/25 10:31:04;;;;;;;5.13;4.72;;;4.50;99.90;;;;;;5052542;28;20251;-87
2021/12/25 10:33:37;;;;;;;5.35;4.95;;;4.50;99.90;;;;;;5053015;28;20218;-80
2021/12/25 10:36:09;;;;;;;9.55;4.88;;;4.50;99.90;;;;;;5052719;28;20269;-80
2021/12/25 10:38:38;;;;;;;4.90;4.50;;;4.50;99.90;;;;;;5053022;28;20256;-80
2021/12/25 10:41:20;;;;;;;15.32;5.32;;;4.50;99.90;;;;;;5052329;28;20268;-80
2021/12/25 10:43:53;;;;;;;4.85;4.47;;;4.50;99.90;;;;;;5052905;28;20358;-81
2021/12/25 10:46:21;;;;;;;4.88;4.47;;;4.50;99.90;;;;;;5052661;28;20237;-80
2021/12/25 10:48:50;;;;;;;5.15;4.72;;;4.40;99.90;;;;;;5052119;28;20236;-83
2021/12/25 10:51:30;;;;;;;6.15;5.55;;;4.40;99.90;;;;;;5053114;28;20265;-82
2021/12/25 10:53:59;;;;;;;9.02;6.18;;;4.40;99.90;;;;;;5052724;28;20232;-82
2021/12/25 10:56:36;;;;;;;5.22;4.82;;;4.30;99.90;;;;;;5052620;28;20316;-81
2021/12/25 10:59:07;;;;;;;5.70;5.20;;;4.30;99.90;;;;;;5052246;28;20225;-82
2021/12/25 11:01:38;;;;;;;6.85;6.00;;;4.30;99.90;;;;;;5052769;28;20297;-81
2021/12/25 11:04:24;;;;;;;6.22;5.72;;;4.30;99.90;;;;;;5052708;28;20212;-81
2021/12/25 11:06:53;;;;;;;5.05;4.60;;;4.30;99.90;;;;;;5052242;28;20289;-81
2021/12/25 11:09:21;;;;;;;8.15;5.70;;;4.30;99.90;;;;;;5051897;28;20308;-88
2021/12/25 11:12:22;;;;;;;5.88;5.28;;;4.20;99.90;;;;;;5052352;28;20240;-88
2021/12/25 11:14:52;;;;;;;6.43;5.82;;;4.20;99.90;;;;;;5052592;28;20225;-88
2021/12/25 11:17:24;;;;;;;8.57;5.75;;;4.10;99.90;;;;;;5052776;28;20284;-88
2021/12/25 11:20:00;;;;;;;7.03;5.28;;;4.10;99.90;;;;;;5051407;28;20205;-81
2021/12/25 11:22:47;;;;;;;6.20;5.60;;;4.00;99.90;;;;;;5052454;28;20209;-82
2021/12/25 11:25:17;;;;;;;5.55;5.13;;;4.00;99.90;;;;;;5052040;28;20338;-82
2021/12/25 11:27:48;;;;;;;7.25;5.82;;;4.00;99.90;;;;;;5052160;28;20284;-82
2021/12/25 11:30:18;;;;;;;6.05;5.50;;;4.00;99.90;;;;;;5051803;28;20293;-81
2021/12/25 11:32:47;;;;;;;6.07;5.50;;;4.00;99.90;;;;;;5052653;28;20209;-81
2021/12/25 11:35:18;;;;;;;9.27;6.28;;;4.00;99.90;;;;;;5052236;28;20267;-81
2021/12/25 11:37:48;;;;;;;6.72;5.53;;;4.00;99.90;;;;;;5052293;28;20205;-81
2021/12/25 11:40:19;;;;;;;4.80;4.40;;;3.90;99.90;;;;;;5051582;28;20244;-82
2021/12/25 11:42:52;;;;;;;5.30;4.82;;;3.80;99.90;;;;;;5051963;28;20273;-82
2021/12/25 11:45:23;;;;;;;5.20;4.75;;;3.80;99.90;;;;;;5052211;28;20296;-82
2021/12/25 11:47:53;;;;;;;6.83;6.23;;;3.80;99.90;;;;;;5052239;28;20205;-82
2021/12/25 11:50:25;;;;;;;9.10;8.30;;;3.70;99.90;;;;;;5051668;28;20209;-81
2021/12/25 11:53:09;;;;;;;8.15;7.43;;;3.60;99.90;;;;;;5052302;28;20233;-88
2021/12/25 11:58:40;;;;;;;8.55;7.45;;;3.70;99.90;;;;;;5050557;28;20289;-89
2021/12/25 12:01:28;;;;;;;6.35;5.78;;;3.70;99.90;;;;;;5052084;28;20281;-88
2021/12/25 12:03:58;;;;;;;5.68;5.18;;;3.70;99.90;;;;;;5052624;28;20210;-88
2021/12/25 12:06:56;;;;;;;5.85;5.25;;;3.60;99.90;;;;;;5052531;28;20233;-89
2021/12/25 12:09:26;;;;;;;6.25;5.68;;;3.50;99.90;;;;;;5051947;28;20309;-88
2021/12/25 12:12:13;;;;;;;8.27;6.68;;;3.50;99.90;;;;;;5052952;28;20232;-88
2021/12/25 12:14:43;;;;;;;6.50;5.85;;;3.50;99.90;;;;;;5053019;28;20226;-89
2021/12/25 12:17:28;;;;;;;5.80;5.30;;;3.50;99.90;;;;;;5058797;28;20259;-88
2021/12/25 12:20:00;;;;;;;6.03;5.45;;;3.60;99.90;;;;;;5058375;28;20259;-88
2021/12/25 12:26:04;;;;;;;6.97;5.47;;;3.60;99.90;;;;;;5051679;28;20234;-82
2021/12/25 12:28:52;;;;;;;7.32;6.57;;;3.60;99.90;;;;;;5051672;28;20223;-82
2021/12/25 12:31:37;;;;;;;6.00;5.40;;;3.60;99.90;;;;;;5055116;28;20272;-82
2021/12/25 12:34:37;;;;;;;5.78;5.28;;;3.60;99.90;;;;;;5055240;28;20236;-82
2021/12/25 12:37:25;;;;;;;7.05;6.30;;;3.50;99.90;;;;;;5055503;28;20202;-82
2021/12/25 12:40:25;;;;;;;7.18;5.85;;;3.40;99.90;;;;;;5054796;28;20225;-81
2021/12/25 12:43:01;;;;;;;6.75;5.38;;;3.40;99.90;;;;;;5055093;28;20206;-82
2021/12/25 12:45:32;;;;;;;5.57;5.10;;;3.40;99.90;;;;;;5055030;28;20263;-82
2021/12/25 12:48:18;;;;;;;6.43;5.88;;;3.30;99.90;;;;;;5054946;28;20206;-82
2021/12/25 12:50:48;;;;;;;5.80;5.28;;;3.20;99.90;;;;;;5054790;28;20237;-82
2021/12/25 12:53:18;;;;;;;6.03;5.47;;;3.20;99.90;;;;;;5055053;28;20209;-88
2021/12/25 12:55:49;;;;;;;7.57;5.00;;;3.20;99.90;;;;;;5054797;28;20248;-88
2021/12/25 12:58:20;;;;;;;5.55;5.05;;;3.20;99.90;;;;;;5055056;28;20217;-82
2021/12/25 13:00:51;;;;;;;6.10;5.47;;;3.20;99.90;;;;;;5054503;28;20292;-82
2021/12/25 13:03:22;;;;;;;6.18;5.18;;;3.10;99.90;;;;;;5055068;28;20206;-82
2021/12/25 13:05:55;;;;;;;5.30;4.90;;;3.10;99.90;;;;;;5055041;28;20237;-81
2021/12/25 13:08:27;;;;;;;6.30;5.70;;;3.10;99.90;;;;;;5054760;28;20214;-81
2021/12/25 13:11:04;;;;;;;7.07;6.28;;;3.10;99.90;;;;;;5054132;28;20210;-81
2021/12/25 13:13:38;;;;;;;4.50;4.10;;;3.00;99.90;;;;;;5054501;28;20217;-81
2021/12/25 13:16:09;;;;;;;5.78;5.28;;;2.90;99.90;;;;;;5054573;28;20279;-81
2021/12/25 13:18:43;;;;;;;5.40;4.90;;;2.90;99.90;;;;;;5054224;28;20214;-81
2021/12/25 13:21:16;;;;;;;7.07;5.77;;;2.90;99.90;;;;;;5054311;28;20226;-81
2021/12/25 13:23:50;;;;;;;5.88;5.28;;;2.70;99.90;;;;;;5054387;28;20206;-81
2021/12/25 13:26:22;;;;;;;5.68;4.88;;;2.70;99.90;;;;;;5054446;28;20252;-82
2021/12/25 13:28:53;;;;;;;6.28;5.13;;;2.60;99.90;;;;;;5054277;28;20210;-82
2021/12/25 13:31:27;;;;;;;5.68;5.18;;;2.60;99.90;;;;;;5054598;28;20231;-88
2021/12/25 13:33:59;;;;;;;5.73;5.00;;;2.50;99.90;;;;;;5054323;28;20230;-89
2021/12/25 13:36:29;;;;;;;5.00;4.50;;;2.50;99.90;;;;;;5054286;28;20221;-87
2021/12/25 13:39:02;;;;;;;8.50;5.90;;;2.40;99.90;;;;;;5053187;28;20268;-88
2021/12/25 13:41:33;;;;;;;5.10;4.70;;;2.40;99.90;;;;;;5053147;28;20198;-88
2021/12/25 13:44:11;;;;;;;5.53;5.03;;;2.30;99.90;;;;;;5054665;28;20214;-88
2021/12/25 13:46:43;;;;;;;8.20;5.20;;;2.30;99.90;;;;;;5054369;28;20268;-88
2021/12/25 13:49:32;;;;;;;6.13;5.53;;;2.30;99.90;;;;;;5052954;28;20226;-81
2021/12/25 13:52:05;;;;;;;8.13;5.83;;;2.20;99.90;;;;;;5054052;28;20206;-81
2021/12/25 13:54:34;;;;;;;6.68;5.32;;;2.10;99.90;;;;;;5053842;28;20237;-81
2021/12/25 13:57:04;;;;;;;6.40;5.80;;;2.10;99.90;;;;;;5053896;28;20273;-81
2021/12/25 13:59:33;;;;;;;7.88;5.72;;;2.10;99.90;;;;;;5052934;28;20268;-81
2021/12/25 14:02:04;;;;;;;9.17;6.77;;;2.00;99.90;;;;;;5053236;28;20270;-81
2021/12/25 14:04:35;;;;;;;6.47;5.87;;;2.00;99.90;;;;;;5053816;28;20221;-81
2021/12/25 14:07:04;;;;;;;5.53;5.03;;;1.90;99.90;;;;;;5053659;28;20289;-83
2021/12/25 14:09:33;;;;;;;5.40;4.90;;;1.90;99.90;;;;;;5053086;28;20237;-83
2021/12/25 14:12:02;;;;;;;5.90;5.40;;;1.80;99.90;;;;;;5053492;28;20206;-84
2021/12/25 14:14:32;;;;;;;5.57;5.07;;;1.70;99.90;;;;;;5053368;28;20244;-83
2021/12/25 14:17:01;;;;;;;5.57;5.07;;;1.70;99.90;;;;;;5053451;28;20205;-83
2021/12/25 14:19:31;;;;;;;5.27;4.77;;;1.60;99.90;;;;;;5052914;28;20201;-91
2021/12/25 14:22:04;;;;;;;6.20;5.60;;;1.70;99.90;;;;;;5053782;28;20263;-90